createdAt,value
2022-08-23T00:08:40.131Z,98248.86
2022-08-23T00:19:19.217Z,98253.16
2022-08-23T00:29:50.216Z,98259.65
2022-08-23T00:40:21.204Z,98264.06
2022-08-23T00:50:56.337Z,98259.03
2022-08-23T01:01:25.901Z,98273.73
2022-08-23T01:12:00.533Z,98271.91
2022-08-23T01:22:35.499Z,98277.89
2022-08-23T01:33:07.309Z,98285.60
2022-08-23T01:43:36.356Z,98285.67
2022-08-23T01:54:05.443Z,98282.50
2022-08-23T02:04:34.374Z,98281.44
2022-08-23T02:15:03.324Z,98288.30
2022-08-23T02:25:32.329Z,98292.73
2022-08-23T02:36:01.113Z,98290.95
2022-08-23T02:46:30.046Z,98296.09
2022-08-23T02:56:58.886Z,98293.55
2022-08-23T03:07:27.832Z,98294.14
2022-08-23T03:17:57.343Z,98295.48
2022-08-23T03:28:26.596Z,98320.09
2022-08-23T03:38:55.701Z,98328.42
2022-08-23T03:49:24.667Z,98324.95
2022-08-23T03:59:53.529Z,98332.27
2022-08-23T04:10:22.631Z,98331.58
2022-08-23T04:20:53.110Z,98333.83
2022-08-23T04:31:23.412Z,98339.16
2022-08-23T04:42:13.122Z,98344.15
2022-08-23T04:52:43.647Z,98355.23
2022-08-23T05:03:12.669Z,98361.52
2022-08-23T05:13:42.801Z,98364.08
2022-08-23T05:24:13.708Z,98365.29
2022-08-23T05:34:46.541Z,98376.94
2022-08-23T05:45:19.396Z,98384.34
2022-08-23T05:55:51.115Z,98392.83
2022-08-23T06:06:20.974Z,98402.69
2022-08-23T06:16:55.594Z,98403.61
2022-08-23T06:27:25.108Z,98410.45
2022-08-23T06:37:54.257Z,98422.48
2022-08-23T06:48:25.801Z,98419.55
2022-08-23T06:58:55.564Z,98416.71
2022-08-23T07:09:24.844Z,98420.73
2022-08-23T07:19:53.717Z,98436.88
2022-08-23T07:30:22.932Z,98449.09
2022-08-23T07:40:53.905Z,98454.10
2022-08-23T07:51:23.941Z,98464.95
2022-08-23T08:01:52.988Z,98465.00
2022-08-23T08:12:23.140Z,98465.77
2022-08-23T08:22:58.337Z,98472.94
2022-08-23T08:33:30.770Z,98488.08
2022-08-23T08:44:11.943Z,98497.24
2022-08-23T08:54:48.159Z,98500.53
2022-08-23T09:05:23.415Z,98502.49
2022-08-23T09:16:01.426Z,98515.52
2022-08-23T09:26:32.540Z,98533.80
2022-08-23T09:37:12.979Z,98541.46
2022-08-23T09:47:44.418Z,98541.15
2022-08-23T09:58:26.298Z,98536.98
2022-08-23T10:09:01.509Z,98541.93
2022-08-23T10:19:37.715Z,98546.41
2022-08-23T10:30:12.949Z,98549.85
2022-08-23T10:40:48.872Z,98556.34
2022-08-23T10:51:31.535Z,98557.63
2022-08-23T11:02:08.352Z,98561.16
2022-08-23T11:12:52.814Z,98562.27
2022-08-23T11:23:41.073Z,98570.36
2022-08-23T11:34:23.081Z,98569.46
2022-08-23T11:44:58.633Z,98573.37
2022-08-23T11:55:49.099Z,98575.42
2022-08-23T12:06:40.846Z,98577.64
2022-08-23T12:17:47.001Z,98578.19
2022-08-23T12:28:35.455Z,98587.77
2022-08-23T12:39:09.599Z,98590.98
2022-08-23T12:49:39.158Z,98588.48
2022-08-23T13:00:20.128Z,98590.16
2022-08-23T13:10:50.332Z,98596.04
2022-08-23T13:21:37.525Z,98589.90
2022-08-23T13:32:25.497Z,98583.35
2022-08-23T13:43:02.820Z,98575.36
2022-08-23T13:53:31.686Z,98574.75
2022-08-23T14:04:06.167Z,98568.70
2022-08-23T14:14:37.377Z,98566.73
2022-08-23T14:25:07.048Z,98559.25
2022-08-23T14:35:36.130Z,98555.56
2022-08-23T14:46:05.481Z,98543.93
2022-08-23T14:56:35.492Z,98545.79
2022-08-23T15:07:17.684Z,98553.40
2022-08-23T15:17:52.666Z,98556.05
2022-08-23T15:28:24.469Z,98578.02
2022-08-23T15:38:53.488Z,98595.70
2022-08-23T15:49:32.870Z,98611.38
2022-08-23T16:00:06.345Z,98618.41
2022-08-23T16:10:35.374Z,98619.27
2022-08-23T16:21:04.377Z,98627.66
2022-08-23T16:31:38.465Z,98632.22
2022-08-23T16:42:09.376Z,98634.98
2022-08-23T16:52:38.622Z,98651.59
2022-08-23T17:03:07.985Z,98658.02
2022-08-23T17:13:36.791Z,98661.54
2022-08-23T17:24:06.476Z,98668.41
2022-08-23T17:34:35.881Z,98676.83
2022-08-23T17:45:05.891Z,98683.55
2022-08-23T17:55:36.590Z,98701.95
2022-08-23T18:06:17.151Z,98727.98
2022-08-23T18:16:53.590Z,98741.04
2022-08-23T18:27:40.016Z,98742.84
2022-08-23T18:38:09.067Z,98762.88
2022-08-23T18:48:38.758Z,98775.00
2022-08-23T18:59:08.411Z,98782.45
2022-08-23T19:09:38.826Z,98780.60
2022-08-23T19:20:09.617Z,98791.76
2022-08-23T19:30:39.057Z,98797.25
2022-08-23T19:41:11.590Z,98804.89
2022-08-23T19:51:41.254Z,98823.95
2022-08-23T20:02:13.964Z,98830.39
2022-08-23T20:12:44.352Z,98829.08
2022-08-23T20:23:30.605Z,98845.42
2022-08-23T20:33:59.916Z,98853.08
2022-08-23T20:44:29.422Z,98859.31
2022-08-23T20:54:59.818Z,98856.20
2022-08-23T21:05:29.119Z,98849.43
2022-08-23T21:15:58.488Z,98843.22
2022-08-23T21:26:27.891Z,98835.44
2022-08-23T21:36:56.714Z,98831.51
2022-08-23T21:47:26.438Z,98832.63
2022-08-23T21:57:55.519Z,98820.80
2022-08-23T22:08:24.402Z,98826.36
2022-08-23T22:18:54.056Z,98820.52
2022-08-23T22:29:23.265Z,98827.52
2022-08-23T22:39:52.144Z,98825.08
2022-08-23T22:50:21.310Z,98806.77
2022-08-23T23:00:50.193Z,98803.17
2022-08-23T23:11:20.984Z,98802.33
2022-08-23T23:21:52.014Z,98807.42
2022-08-23T23:32:21.418Z,98810.44
2022-08-23T23:42:50.498Z,98807.38
2022-08-23T23:53:20.612Z,98804.36
